Prince Alfred: Past 24 Hour Conditions

 

Stony Rapids Airport

09:00 AM CST 28 August 2014
This table is a summary of hourly weather conditions for the past 24 hours.
Date / Time
(CST)
Wind(knots) Conditions Visibility(km) Pressure(kPa) Air tempC) Relative humidity(%) Dew pointC) Humidex
28 August 2014
9:00 WSW 12 gust 19 Cloudy 16 100.5 12 80 9 *
8:00 WSW 11 gust 18 Cloudy 16 100.5 12 83 9 *
7:00 WSW 5 Cloudy 16 100.5 11 85 9 *
6:00 WSW 8 Mostly Cloudy 16 100.5 11 87 9 *
5:00 W 4 Clear 16 100.5 10 88 8 *
4:00 W 4 Mainly Clear 16 100.5 10 87 8 *
3:00 WSW 3 Cloudy 16 100.5 9 89 7 *
2:00 W 2 Clear 16 100.5 11 78 7 *
1:00 W 4 Clear 16 100.5 12 75 8 *
0:00 W 3 Mostly Cloudy 16 100.4 13 73 8 *
27 August 2014
23:00 W 5 Clear 16 100.4 14 66 8 *
22:00 WSW 6 Clear 16 100.5 13 71 8 *
21:00 W 5 Clear 16 100.5 15 60 7 *
20:00 W 8 gust 15 Sunny 16 100.4 17 52 7 *
19:00 W 13 gust 18 Sunny 16 100.4 19 48 8 *
18:00 W 15 gust 20 Sunny 16 100.4 20 42 7 *
17:00 W 17 gust 27 Sunny 16 100.4 21 44 8 *
16:00 W 14 gust 22 N/A 16 100.3 21 52 11 *
15:00 W 11 gust 19 N/A 16 100.4 19 68 13 *
14:00 W 10 gust 18 Sunny 16 100.3 20 65 13 *
13:00 WSW 11 Mainly Sunny 16 100.2 22 58 14 25
12:00 SW 5 Cloudy 16 100.2 22 60 14 25
11:00 E 4 Sunny 16 100.3 21 61 13 *
10:00 E 5 Sunny 16 100.3 17 75 13 *
9:00 E 3 Cloudy 13 100.4 14 85 11 *
 
Map of Mackenzie - Mackenzie River marine weather areas Great Slave Lake - 45141 Great Slave Lake North Arm - 45150 Herschel Island Komakuk Beach Shingle Point Airport Aklavik Airport Cape Parry Airport Fort Good Hope Airport Tulita Airport Fort Providence Fort Reliance Fort Resolution Airport Fort Simpson Airport Hay River/Merlyn Carter Airport Inner Whaleback Rocks Inuvik Airport Keats Point Norman Wells Airport Paulatuk Airport Pelly Island Tuktoyaktuk Airport Wrigley Airport Yellowknife Airport Kugluktuk Airport Hat Island Cambridge Bay Airport Cape Peel West Stefansson Island Ulukhaktok Airport Sachs Harbour Airport Thomsen River Egg Island Fort Chipewyan Airport Stony Rapids Airport Liverpool Bay Little Chicago Lutselke Airport Storm Hills Croker River Prairie River Uranium City Bathurst Inlet Gateshead Island
Legend: buoyBuoy land stationLand Station